Pagrindinis puslapis
METAR-TAF:

METAR-TAF

Oro uostai :

Båtsfjord, Norvegija

platuma: 70-38N, ilguma: 029-44E, Aukštis: 10 m

Dabartinis oras

Ataskaita buvo paskelbta 1 valandą ir 35 minutes, ne 12:20 UTC
Ramus vėjas
Temperatūra 0°C
Drėgmė 86%
Slėgis 999 hPa
Matomumas 10 km arba daugiau
Su prošvaistėmis ne aukštis 1000 ft
Liūtis kaimynystėje

METAR: ENBS 161220Z 00000KT 9999 VCSH BKN010 M00/M02 Q0999

Laikas: 14:55 (13:55 UTC)


TAF: trūkstamas

Orai ataskaitas ir orų prognozės (METAR, TAF).

turimą stotys yra geltonos ir raudonos taškus žemėlapyje.

Perkelti pele per norėdami pamatyti stoties vardą.

Tada spustelėkite, norėdami matyti oro stebėjimo ir prognozės.

Norėdami pakeisti žemėlapį: spustelėkite ant žalios mygtukų su juodo kryžiaus žemyn,; žalią mygtuką su brūkšneliu, jei norite nutolinti; arba žalių rodyklių gretimoms žemėlapius.


METAR-TAF: